sensor_id;sensor_type;location;lat;lon;timestamp;temperature;humidity
21092;DHT22;10704;42.678;23.288;2022-12-11T00:01:45;10.10;99.90
21092;DHT22;10704;42.678;23.288;2022-12-11T00:04:11;10.20;99.90
21092;DHT22;10704;42.678;23.288;2022-12-11T00:06:36;10.20;99.90
21092;DHT22;10704;42.678;23.288;2022-12-11T00:09:03;10.20;99.90
21092;DHT22;10704;42.678;23.288;2022-12-11T00:11:28;10.10;99.90
21092;DHT22;10704;42.678;23.288;2022-12-11T00:13:54;10.10;99.90
21092;DHT22;10704;42.678;23.288;2022-12-11T00:16:20;10.00;99.90
21092;DHT22;10704;42.678;23.288;2022-12-11T00:18:46;10.10;99.90
21092;DHT22;10704;42.678;23.288;2022-12-11T00:21:13;10.20;99.90
21092;DHT22;10704;42.678;23.288;2022-12-11T00:23:40;10.30;99.90
21092;DHT22;10704;42.678;23.288;2022-12-11T00:26:09;10.30;99.90
21092;DHT22;10704;42.678;23.288;2022-12-11T00:28:36;10.20;99.90
21092;DHT22;10704;42.678;23.288;2022-12-11T00:31:08;10.20;99.90
21092;DHT22;10704;42.678;23.288;2022-12-11T00:33:34;10.20;99.90
21092;DHT22;10704;42.678;23.288;2022-12-11T00:36:00;10.10;99.90
21092;DHT22;10704;42.678;23.288;2022-12-11T00:38:26;10.00;99.90
21092;DHT22;10704;42.678;23.288;2022-12-11T00:40:52;10.00;99.90
21092;DHT22;10704;42.678;23.288;2022-12-11T00:43:18;10.10;99.90
21092;DHT22;10704;42.678;23.288;2022-12-11T00:45:45;10.10;99.90
21092;DHT22;10704;42.678;23.288;2022-12-11T00:48:12;10.10;99.90
21092;DHT22;10704;42.678;23.288;2022-12-11T00:50:38;10.30;99.90
21092;DHT22;10704;42.678;23.288;2022-12-11T00:53:05;10.40;99.90
21092;DHT22;10704;42.678;23.288;2022-12-11T00:55:36;10.40;99.90
21092;DHT22;10704;42.678;23.288;2022-12-11T00:58:02;10.40;99.90
21092;DHT22;10704;42.678;23.288;2022-12-11T01:00:29;10.40;99.90
21092;DHT22;10704;42.678;23.288;2022-12-11T01:02:55;10.40;99.90
21092;DHT22;10704;42.678;23.288;2022-12-11T01:05:21;10.40;99.90
21092;DHT22;10704;42.678;23.288;2022-12-11T01:07:47;10.30;99.90
21092;DHT22;10704;42.678;23.288;2022-12-11T01:10:13;10.40;99.90
21092;DHT22;10704;42.678;23.288;2022-12-11T01:12:58;10.40;99.90
21092;DHT22;10704;42.678;23.288;2022-12-11T01:15:27;10.30;99.90
21092;DHT22;10704;42.678;23.288;2022-12-11T01:18:14;10.30;99.90
21092;DHT22;10704;42.678;23.288;2022-12-11T01:20:41;10.40;99.90
21092;DHT22;10704;42.678;23.288;2022-12-11T01:23:09;10.40;99.90
21092;DHT22;10704;42.678;23.288;2022-12-11T01:25:35;10.50;99.90
21092;DHT22;10704;42.678;23.288;2022-12-11T01:28:04;10.50;99.90
21092;DHT22;10704;42.678;23.288;2022-12-11T01:30:31;10.50;99.90
21092;DHT22;10704;42.678;23.288;2022-12-11T01:33:16;10.60;99.90
21092;DHT22;10704;42.678;23.288;2022-12-11T01:35:41;10.50;99.90
21092;DHT22;10704;42.678;23.288;2022-12-11T01:38:08;10.40;99.90
21092;DHT22;10704;42.678;23.288;2022-12-11T01:40:34;10.30;99.90
21092;DHT22;10704;42.678;23.288;2022-12-11T01:43:00;10.40;99.90
21092;DHT22;10704;42.678;23.288;2022-12-11T01:45:41;10.50;99.90
21092;DHT22;10704;42.678;23.288;2022-12-11T01:48:20;10.60;99.90
21092;DHT22;10704;42.678;23.288;2022-12-11T01:50:53;10.60;99.90
21092;DHT22;10704;42.678;23.288;2022-12-11T01:53:27;10.60;99.90
21092;DHT22;10704;42.678;23.288;2022-12-11T01:55:55;10.70;99.90
21092;DHT22;10704;42.678;23.288;2022-12-11T01:58:28;10.70;99.90
21092;DHT22;10704;42.678;23.288;2022-12-11T02:00:56;11.00;99.90
21092;DHT22;10704;42.678;23.288;2022-12-11T02:03:22;12.30;99.90
21092;DHT22;10704;42.678;23.288;2022-12-11T02:05:49;12.40;99.90
21092;DHT22;10704;42.678;23.288;2022-12-11T02:08:15;12.60;99.90
21092;DHT22;10704;42.678;23.288;2022-12-11T02:11:19;13.20;99.90
21092;DHT22;10704;42.678;23.288;2022-12-11T02:13:54;13.30;99.90
21092;DHT22;10704;42.678;23.288;2022-12-11T02:16:30;13.00;99.90
21092;DHT22;10704;42.678;23.288;2022-12-11T02:19:05;12.80;99.90
21092;DHT22;10704;42.678;23.288;2022-12-11T02:21:44;13.10;99.90
21092;DHT22;10704;42.678;23.288;2022-12-11T02:29:56;14.10;99.90
21092;DHT22;10704;42.678;23.288;2022-12-11T02:33:03;14.40;99.90
21092;DHT22;10704;42.678;23.288;2022-12-11T02:35:33;14.50;99.90
21092;DHT22;10704;42.678;23.288;2022-12-11T02:38:04;14.60;99.90
21092;DHT22;10704;42.678;23.288;2022-12-11T02:40:32;14.70;99.90
21092;DHT22;10704;42.678;23.288;2022-12-11T02:43:03;14.60;99.90
21092;DHT22;10704;42.678;23.288;2022-12-11T02:45:31;14.70;99.90
21092;DHT22;10704;42.678;23.288;2022-12-11T02:48:00;14.80;99.90
21092;DHT22;10704;42.678;23.288;2022-12-11T02:50:28;14.80;99.90
21092;DHT22;10704;42.678;23.288;2022-12-11T02:52:55;14.70;99.90
21092;DHT22;10704;42.678;23.288;2022-12-11T02:55:22;14.70;99.90
21092;DHT22;10704;42.678;23.288;2022-12-11T02:57:55;14.80;99.90
21092;DHT22;10704;42.678;23.288;2022-12-11T03:00:23;14.60;99.90
21092;DHT22;10704;42.678;23.288;2022-12-11T03:02:49;14.60;99.90
21092;DHT22;10704;42.678;23.288;2022-12-11T03:05:15;14.80;99.90
21092;DHT22;10704;42.678;23.288;2022-12-11T03:07:42;14.60;99.90
21092;DHT22;10704;42.678;23.288;2022-12-11T03:10:13;14.60;99.90
21092;DHT22;10704;42.678;23.288;2022-12-11T03:12:42;14.40;99.90
21092;DHT22;10704;42.678;23.288;2022-12-11T03:15:15;14.40;99.90
21092;DHT22;10704;42.678;23.288;2022-12-11T03:20:36;14.80;99.90
21092;DHT22;10704;42.678;23.288;2022-12-11T03:25:41;14.70;99.90
21092;DHT22;10704;42.678;23.288;2022-12-11T03:28:18;14.80;99.90
21092;DHT22;10704;42.678;23.288;2022-12-11T03:30:50;14.80;99.90
21092;DHT22;10704;42.678;23.288;2022-12-11T03:33:25;14.80;99.90
21092;DHT22;10704;42.678;23.288;2022-12-11T03:35:58;14.90;99.90
21092;DHT22;10704;42.678;23.288;2022-12-11T03:38:53;14.70;99.90
21092;DHT22;10704;42.678;23.288;2022-12-11T03:41:21;14.60;99.90
21092;DHT22;10704;42.678;23.288;2022-12-11T03:43:49;14.60;99.90
21092;DHT22;10704;42.678;23.288;2022-12-11T03:46:17;14.70;99.90
21092;DHT22;10704;42.678;23.288;2022-12-11T03:48:45;14.60;99.90
21092;DHT22;10704;42.678;23.288;2022-12-11T03:51:13;14.40;99.90
21092;DHT22;10704;42.678;23.288;2022-12-11T03:53:39;14.40;99.90
21092;DHT22;10704;42.678;23.288;2022-12-11T03:56:07;14.70;99.90
21092;DHT22;10704;42.678;23.288;2022-12-11T03:58:35;14.80;99.90
21092;DHT22;10704;42.678;23.288;2022-12-11T04:01:01;14.70;99.90
21092;DHT22;10704;42.678;23.288;2022-12-11T04:03:27;14.50;99.90
21092;DHT22;10704;42.678;23.288;2022-12-11T04:05:54;14.30;99.90
21092;DHT22;10704;42.678;23.288;2022-12-11T04:08:21;14.10;99.90
21092;DHT22;10704;42.678;23.288;2022-12-11T04:10:48;14.20;99.90
21092;DHT22;10704;42.678;23.288;2022-12-11T04:13:35;14.20;99.90
21092;DHT22;10704;42.678;23.288;2022-12-11T04:16:01;14.10;99.90
21092;DHT22;10704;42.678;23.288;2022-12-11T04:18:26;14.20;99.90
21092;DHT22;10704;42.678;23.288;2022-12-11T04:21:11;14.20;99.90
21092;DHT22;10704;42.678;23.288;2022-12-11T04:23:55;14.20;99.90
21092;DHT22;10704;42.678;23.288;2022-12-11T04:26:41;14.30;99.90
21092;DHT22;10704;42.678;23.288;2022-12-11T04:29:07;14.30;99.90
21092;DHT22;10704;42.678;23.288;2022-12-11T04:31:32;14.40;99.90
21092;DHT22;10704;42.678;23.288;2022-12-11T04:33:58;14.50;99.90
21092;DHT22;10704;42.678;23.288;2022-12-11T04:36:24;14.50;99.90
21092;DHT22;10704;42.678;23.288;2022-12-11T04:38:50;14.50;99.90
21092;DHT22;10704;42.678;23.288;2022-12-11T04:41:16;14.50;99.90
21092;DHT22;10704;42.678;23.288;2022-12-11T04:43:43;14.60;99.90
21092;DHT22;10704;42.678;23.288;2022-12-11T04:46:19;14.90;99.90
21092;DHT22;10704;42.678;23.288;2022-12-11T04:48:46;15.10;99.90
21092;DHT22;10704;42.678;23.288;2022-12-11T04:51:12;15.20;99.90
21092;DHT22;10704;42.678;23.288;2022-12-11T04:53:38;15.20;99.90
21092;DHT22;10704;42.678;23.288;2022-12-11T04:56:09;15.20;99.90
21092;DHT22;10704;42.678;23.288;2022-12-11T04:58:36;14.90;99.90
21092;DHT22;10704;42.678;23.288;2022-12-11T05:01:09;14.80;99.90
21092;DHT22;10704;42.678;23.288;2022-12-11T05:03:36;14.80;99.90
21092;DHT22;10704;42.678;23.288;2022-12-11T05:06:02;14.90;99.90
21092;DHT22;10704;42.678;23.288;2022-12-11T05:08:28;14.80;99.90
21092;DHT22;10704;42.678;23.288;2022-12-11T05:10:59;14.80;99.90
21092;DHT22;10704;42.678;23.288;2022-12-11T05:13:26;14.90;99.90
21092;DHT22;10704;42.678;23.288;2022-12-11T05:15:52;15.10;99.90
21092;DHT22;10704;42.678;23.288;2022-12-11T05:18:19;15.10;99.90
21092;DHT22;10704;42.678;23.288;2022-12-11T05:20:53;15.30;99.90
21092;DHT22;10704;42.678;23.288;2022-12-11T05:23:19;15.30;99.90
21092;DHT22;10704;42.678;23.288;2022-12-11T05:25:51;15.20;99.90
21092;DHT22;10704;42.678;23.288;2022-12-11T05:28:17;15.20;99.90
21092;DHT22;10704;42.678;23.288;2022-12-11T05:30:43;15.40;99.90
21092;DHT22;10704;42.678;23.288;2022-12-11T05:33:09;15.40;99.90
21092;DHT22;10704;42.678;23.288;2022-12-11T05:35:35;15.50;99.90
21092;DHT22;10704;42.678;23.288;2022-12-11T05:38:00;15.40;99.90
21092;DHT22;10704;42.678;23.288;2022-12-11T05:40:26;15.30;99.90
21092;DHT22;10704;42.678;23.288;2022-12-11T05:42:52;15.40;99.90
21092;DHT22;10704;42.678;23.288;2022-12-11T05:45:18;15.30;99.90
21092;DHT22;10704;42.678;23.288;2022-12-11T05:47:44;15.20;99.90
21092;DHT22;10704;42.678;23.288;2022-12-11T05:50:10;15.30;99.90
21092;DHT22;10704;42.678;23.288;2022-12-11T05:52:36;15.30;99.90
21092;DHT22;10704;42.678;23.288;2022-12-11T05:55:02;15.20;99.90
21092;DHT22;10704;42.678;23.288;2022-12-11T05:57:28;15.20;99.90
21092;DHT22;10704;42.678;23.288;2022-12-11T05:59:54;15.20;99.90
21092;DHT22;10704;42.678;23.288;2022-12-11T06:02:20;15.20;99.90
21092;DHT22;10704;42.678;23.288;2022-12-11T06:04:46;15.20;99.90
21092;DHT22;10704;42.678;23.288;2022-12-11T06:07:12;15.10;99.90
21092;DHT22;10704;42.678;23.288;2022-12-11T06:09:38;15.00;99.90
21092;DHT22;10704;42.678;23.288;2022-12-11T06:12:04;15.30;99.90
21092;DHT22;10704;42.678;23.288;2022-12-11T06:14:30;15.20;99.90
21092;DHT22;10704;42.678;23.288;2022-12-11T06:16:55;15.10;99.90
21092;DHT22;10704;42.678;23.288;2022-12-11T06:19:21;15.10;99.90
21092;DHT22;10704;42.678;23.288;2022-12-11T06:21:47;15.10;99.90
21092;DHT22;10704;42.678;23.288;2022-12-11T06:24:13;15.10;99.90
21092;DHT22;10704;42.678;23.288;2022-12-11T06:26:39;15.50;99.90
21092;DHT22;10704;42.678;23.288;2022-12-11T06:29:05;15.40;99.90
21092;DHT22;10704;42.678;23.288;2022-12-11T06:31:31;15.40;99.90
21092;DHT22;10704;42.678;23.288;2022-12-11T06:33:57;15.40;99.90
21092;DHT22;10704;42.678;23.288;2022-12-11T06:36:23;15.60;99.90
21092;DHT22;10704;42.678;23.288;2022-12-11T06:38:50;15.70;99.90
21092;DHT22;10704;42.678;23.288;2022-12-11T06:41:16;15.70;99.90
21092;DHT22;10704;42.678;23.288;2022-12-11T06:43:43;15.70;99.90
21092;DHT22;10704;42.678;23.288;2022-12-11T06:46:11;15.70;99.90
21092;DHT22;10704;42.678;23.288;2022-12-11T06:48:37;15.80;99.90
21092;DHT22;10704;42.678;23.288;2022-12-11T06:51:06;15.70;99.90
21092;DHT22;10704;42.678;23.288;2022-12-11T06:53:33;15.60;99.90
21092;DHT22;10704;42.678;23.288;2022-12-11T06:56:04;15.50;99.90
21092;DHT22;10704;42.678;23.288;2022-12-11T06:58:32;15.50;99.90
21092;DHT22;10704;42.678;23.288;2022-12-11T07:00:58;15.50;99.90
21092;DHT22;10704;42.678;23.288;2022-12-11T07:03:24;15.50;99.90
21092;DHT22;10704;42.678;23.288;2022-12-11T07:05:50;15.70;99.90
21092;DHT22;10704;42.678;23.288;2022-12-11T07:08:16;15.60;99.90
21092;DHT22;10704;42.678;23.288;2022-12-11T07:10:41;15.60;99.90
21092;DHT22;10704;42.678;23.288;2022-12-11T07:13:07;15.60;99.90
21092;DHT22;10704;42.678;23.288;2022-12-11T07:15:34;15.50;99.90
21092;DHT22;10704;42.678;23.288;2022-12-11T07:18:01;15.50;99.90
21092;DHT22;10704;42.678;23.288;2022-12-11T07:20:26;15.50;99.90
21092;DHT22;10704;42.678;23.288;2022-12-11T07:22:53;15.50;99.90
21092;DHT22;10704;42.678;23.288;2022-12-11T07:25:19;15.50;99.90
21092;DHT22;10704;42.678;23.288;2022-12-11T07:27:45;15.50;99.90
21092;DHT22;10704;42.678;23.288;2022-12-11T07:30:12;15.60;99.90
21092;DHT22;10704;42.678;23.288;2022-12-11T07:32:38;15.60;99.90
21092;DHT22;10704;42.678;23.288;2022-12-11T07:35:04;15.70;99.90
21092;DHT22;10704;42.678;23.288;2022-12-11T07:37:30;15.70;99.90
21092;DHT22;10704;42.678;23.288;2022-12-11T07:39:56;15.80;99.90
21092;DHT22;10704;42.678;23.288;2022-12-11T07:42:22;15.80;99.90
21092;DHT22;10704;42.678;23.288;2022-12-11T07:44:48;15.80;99.90
21092;DHT22;10704;42.678;23.288;2022-12-11T07:47:14;15.80;99.90
21092;DHT22;10704;42.678;23.288;2022-12-11T07:49:40;15.70;99.90
21092;DHT22;10704;42.678;23.288;2022-12-11T07:52:06;15.70;99.90
21092;DHT22;10704;42.678;23.288;2022-12-11T07:54:32;15.60;99.90
21092;DHT22;10704;42.678;23.288;2022-12-11T07:56:58;15.60;99.90
21092;DHT22;10704;42.678;23.288;2022-12-11T07:59:24;15.50;99.90
21092;DHT22;10704;42.678;23.288;2022-12-11T08:01:50;15.60;99.90
21092;DHT22;10704;42.678;23.288;2022-12-11T08:04:16;15.90;99.90
21092;DHT22;10704;42.678;23.288;2022-12-11T08:06:42;15.90;99.90
21092;DHT22;10704;42.678;23.288;2022-12-11T08:09:11;15.90;99.90
21092;DHT22;10704;42.678;23.288;2022-12-11T08:11:37;16.00;99.90
21092;DHT22;10704;42.678;23.288;2022-12-11T08:14:03;16.10;99.90
21092;DHT22;10704;42.678;23.288;2022-12-11T08:16:31;16.20;99.90
21092;DHT22;10704;42.678;23.288;2022-12-11T08:18:57;16.10;99.90
21092;DHT22;10704;42.678;23.288;2022-12-11T08:21:26;16.10;99.90
21092;DHT22;10704;42.678;23.288;2022-12-11T08:23:53;16.20;99.90
21092;DHT22;10704;42.678;23.288;2022-12-11T08:26:22;16.30;99.90
21092;DHT22;10704;42.678;23.288;2022-12-11T08:28:48;16.30;99.90
21092;DHT22;10704;42.678;23.288;2022-12-11T08:31:15;16.20;99.90
21092;DHT22;10704;42.678;23.288;2022-12-11T08:33:41;16.20;99.90
21092;DHT22;10704;42.678;23.288;2022-12-11T08:36:10;16.10;99.90
21092;DHT22;10704;42.678;23.288;2022-12-11T08:38:37;16.00;99.90
21092;DHT22;10704;42.678;23.288;2022-12-11T08:41:14;16.00;99.90
21092;DHT22;10704;42.678;23.288;2022-12-11T08:43:41;15.90;99.90
21092;DHT22;10704;42.678;23.288;2022-12-11T08:46:08;15.90;99.90
21092;DHT22;10704;42.678;23.288;2022-12-11T08:48:35;15.80;99.90
21092;DHT22;10704;42.678;23.288;2022-12-11T08:51:03;15.60;99.90
21092;DHT22;10704;42.678;23.288;2022-12-11T08:53:30;15.60;99.90
21092;DHT22;10704;42.678;23.288;2022-12-11T08:56:01;15.40;99.90
21092;DHT22;10704;42.678;23.288;2022-12-11T08:58:27;15.30;99.90
21092;DHT22;10704;42.678;23.288;2022-12-11T09:00:55;15.00;99.90
21092;DHT22;10704;42.678;23.288;2022-12-11T09:03:21;14.70;99.90
21092;DHT22;10704;42.678;23.288;2022-12-11T09:05:46;14.60;99.90
21092;DHT22;10704;42.678;23.288;2022-12-11T09:08:12;14.70;99.90
21092;DHT22;10704;42.678;23.288;2022-12-11T09:10:38;14.80;99.90
21092;DHT22;10704;42.678;23.288;2022-12-11T09:13:04;15.20;99.90
21092;DHT22;10704;42.678;23.288;2022-12-11T09:15:30;15.60;99.90
21092;DHT22;10704;42.678;23.288;2022-12-11T09:17:56;15.90;99.90
21092;DHT22;10704;42.678;23.288;2022-12-11T09:20:21;16.50;99.90
21092;DHT22;10704;42.678;23.288;2022-12-11T09:22:47;17.20;99.90
21092;DHT22;10704;42.678;23.288;2022-12-11T09:25:13;17.10;99.90
21092;DHT22;10704;42.678;23.288;2022-12-11T09:27:39;17.40;99.90
21092;DHT22;10704;42.678;23.288;2022-12-11T09:30:08;16.90;99.90
21092;DHT22;10704;42.678;23.288;2022-12-11T09:32:34;17.20;99.90
21092;DHT22;10704;42.678;23.288;2022-12-11T09:34:59;17.50;99.90
21092;DHT22;10704;42.678;23.288;2022-12-11T09:37:25;18.60;99.90
21092;DHT22;10704;42.678;23.288;2022-12-11T09:39:51;18.90;99.90
21092;DHT22;10704;42.678;23.288;2022-12-11T09:42:31;19.00;99.90
21092;DHT22;10704;42.678;23.288;2022-12-11T09:45:03;19.60;99.90
21092;DHT22;10704;42.678;23.288;2022-12-11T09:47:37;19.40;99.90
21092;DHT22;10704;42.678;23.288;2022-12-11T09:52:36;20.00;99.90
21092;DHT22;10704;42.678;23.288;2022-12-11T09:55:20;21.70;97.40
21092;DHT22;10704;42.678;23.288;2022-12-11T09:57:55;21.70;94.50
21092;DHT22;10704;42.678;23.288;2022-12-11T10:06:24;17.60;99.90
21092;DHT22;10704;42.678;23.288;2022-12-11T10:08:59;17.40;99.90
21092;DHT22;10704;42.678;23.288;2022-12-11T10:17:10;17.30;99.90
21092;DHT22;10704;42.678;23.288;2022-12-11T10:19:38;16.80;99.90
21092;DHT22;10704;42.678;23.288;2022-12-11T10:22:13;16.60;99.90
21092;DHT22;10704;42.678;23.288;2022-12-11T10:24:48;16.80;99.90
21092;DHT22;10704;42.678;23.288;2022-12-11T10:27:22;16.80;99.90
21092;DHT22;10704;42.678;23.288;2022-12-11T10:30:17;16.60;99.90
21092;DHT22;10704;42.678;23.288;2022-12-11T10:32:47;16.20;99.90
21092;DHT22;10704;42.678;23.288;2022-12-11T10:35:42;15.90;99.90
21092;DHT22;10704;42.678;23.288;2022-12-11T10:38:19;15.70;99.90
21092;DHT22;10704;42.678;23.288;2022-12-11T10:40:49;16.30;99.90
21092;DHT22;10704;42.678;23.288;2022-12-11T10:43:15;18.00;99.90
21092;DHT22;10704;42.678;23.288;2022-12-11T10:45:53;20.40;99.90
21092;DHT22;10704;42.678;23.288;2022-12-11T10:48:19;23.00;99.90
21092;DHT22;10704;42.678;23.288;2022-12-11T10:51:00;24.80;98.20
21092;DHT22;10704;42.678;23.288;2022-12-11T10:53:28;25.90;92.60
21092;DHT22;10704;42.678;23.288;2022-12-11T10:55:55;26.10;91.20
21092;DHT22;10704;42.678;23.288;2022-12-11T10:58:25;26.70;83.70
21092;DHT22;10704;42.678;23.288;2022-12-11T11:01:15;24.70;81.90
21092;DHT22;10704;42.678;23.288;2022-12-11T11:06:22;20.00;90.90
21092;DHT22;10704;42.678;23.288;2022-12-11T11:08:54;18.70;93.80
21092;DHT22;10704;42.678;23.288;2022-12-11T11:11:30;18.00;97.00
21092;DHT22;10704;42.678;23.288;2022-12-11T11:16:39;17.80;99.90
21092;DHT22;10704;42.678;23.288;2022-12-11T11:19:06;17.70;99.90
21092;DHT22;10704;42.678;23.288;2022-12-11T11:21:34;17.60;99.90
21092;DHT22;10704;42.678;23.288;2022-12-11T11:24:03;17.60;99.90
21092;DHT22;10704;42.678;23.288;2022-12-11T11:26:31;17.40;99.90
21092;DHT22;10704;42.678;23.288;2022-12-11T11:28:58;17.10;99.90
21092;DHT22;10704;42.678;23.288;2022-12-11T11:31:33;17.00;99.90
21092;DHT22;10704;42.678;23.288;2022-12-11T11:34:04;17.20;99.90
21092;DHT22;10704;42.678;23.288;2022-12-11T11:36:33;17.20;99.90
21092;DHT22;10704;42.678;23.288;2022-12-11T11:44:44;19.00;99.90
21092;DHT22;10704;42.678;23.288;2022-12-11T11:47:18;18.40;99.90
21092;DHT22;10704;42.678;23.288;2022-12-11T11:52:45;17.80;99.90
21092;DHT22;10704;42.678;23.288;2022-12-11T11:55:14;17.80;99.90
21092;DHT22;10704;42.678;23.288;2022-12-11T12:00:24;17.50;99.90
21092;DHT22;10704;42.678;23.288;2022-12-11T12:02:55;17.30;99.90
21092;DHT22;10704;42.678;23.288;2022-12-11T12:05:27;16.90;99.90
21092;DHT22;10704;42.678;23.288;2022-12-11T12:10:41;16.20;99.90
21092;DHT22;10704;42.678;23.288;2022-12-11T12:13:33;16.20;99.90
21092;DHT22;10704;42.678;23.288;2022-12-11T12:16:02;16.10;99.90
21092;DHT22;10704;42.678;23.288;2022-12-11T12:21:48;15.70;99.90
21092;DHT22;10704;42.678;23.288;2022-12-11T12:27:31;15.20;99.90
21092;DHT22;10704;42.678;23.288;2022-12-11T12:30:07;14.70;99.90
21092;DHT22;10704;42.678;23.288;2022-12-11T12:35:34;12.70;99.90
21092;DHT22;10704;42.678;23.288;2022-12-11T12:38:13;11.90;99.90
21092;DHT22;10704;42.678;23.288;2022-12-11T12:43:38;10.70;99.90
21092;DHT22;10704;42.678;23.288;2022-12-11T12:48:57;9.60;99.90
21092;DHT22;10704;42.678;23.288;2022-12-11T12:51:24;9.10;99.90
21092;DHT22;10704;42.678;23.288;2022-12-11T12:53:59;8.90;99.90
21092;DHT22;10704;42.678;23.288;2022-12-11T12:56:28;8.60;99.90
21092;DHT22;10704;42.678;23.288;2022-12-11T12:58:54;8.40;99.90
21092;DHT22;10704;42.678;23.288;2022-12-11T13:01:26;8.20;99.90
21092;DHT22;10704;42.678;23.288;2022-12-11T13:06:47;7.50;99.90
21092;DHT22;10704;42.678;23.288;2022-12-11T13:09:18;7.30;99.90
21092;DHT22;10704;42.678;23.288;2022-12-11T13:11:47;7.20;99.90
21092;DHT22;10704;42.678;23.288;2022-12-11T13:16:50;6.90;99.90
21092;DHT22;10704;42.678;23.288;2022-12-11T13:27:26;6.30;99.90
21092;DHT22;10704;42.678;23.288;2022-12-11T13:30:21;6.20;99.90
21092;DHT22;10704;42.678;23.288;2022-12-11T13:35:23;6.10;99.90
21092;DHT22;10704;42.678;23.288;2022-12-11T13:37:49;6.10;99.90
21092;DHT22;10704;42.678;23.288;2022-12-11T13:43:05;6.20;99.90
21092;DHT22;10704;42.678;23.288;2022-12-11T13:45:52;6.10;99.90
21092;DHT22;10704;42.678;23.288;2022-12-11T13:50:49;5.80;99.90
21092;DHT22;10704;42.678;23.288;2022-12-11T13:53:18;5.80;99.90
21092;DHT22;10704;42.678;23.288;2022-12-11T13:55:44;5.70;99.90
21092;DHT22;10704;42.678;23.288;2022-12-11T13:58:18;5.70;99.90
21092;DHT22;10704;42.678;23.288;2022-12-11T14:03:33;5.60;99.90
21092;DHT22;10704;42.678;23.288;2022-12-11T14:06:00;5.50;99.90
21092;DHT22;10704;42.678;23.288;2022-12-11T14:08:33;5.40;99.90
21092;DHT22;10704;42.678;23.288;2022-12-11T14:11:00;5.40;99.90
21092;DHT22;10704;42.678;23.288;2022-12-11T14:13:32;5.40;99.90
21092;DHT22;10704;42.678;23.288;2022-12-11T14:15:59;5.30;99.90
21092;DHT22;10704;42.678;23.288;2022-12-11T14:18:43;5.20;99.90
21092;DHT22;10704;42.678;23.288;2022-12-11T14:21:19;5.10;99.90
21092;DHT22;10704;42.678;23.288;2022-12-11T14:23:54;4.90;99.90
21092;DHT22;10704;42.678;23.288;2022-12-11T14:26:33;4.80;99.90
21092;DHT22;10704;42.678;23.288;2022-12-11T14:29:00;4.80;99.90
21092;DHT22;10704;42.678;23.288;2022-12-11T14:31:36;4.80;99.90
21092;DHT22;10704;42.678;23.288;2022-12-11T14:34:10;4.70;99.90
21092;DHT22;10704;42.678;23.288;2022-12-11T14:36:38;4.60;99.90
21092;DHT22;10704;42.678;23.288;2022-12-11T14:39:13;4.60;99.90
21092;DHT22;10704;42.678;23.288;2022-12-11T14:41:59;4.50;99.90
21092;DHT22;10704;42.678;23.288;2022-12-11T14:44:31;4.50;99.90
21092;DHT22;10704;42.678;23.288;2022-12-11T14:47:03;4.50;99.90
21092;DHT22;10704;42.678;23.288;2022-12-11T14:52:32;4.30;99.90
21092;DHT22;10704;42.678;23.288;2022-12-11T14:55:07;4.30;99.90
21092;DHT22;10704;42.678;23.288;2022-12-11T14:57:36;4.30;99.90
21092;DHT22;10704;42.678;23.288;2022-12-11T15:00:05;4.30;99.90
21092;DHT22;10704;42.678;23.288;2022-12-11T15:02:34;4.30;99.90
21092;DHT22;10704;42.678;23.288;2022-12-11T15:05:27;4.30;99.90
21092;DHT22;10704;42.678;23.288;2022-12-11T15:08:18;4.30;99.90
21092;DHT22;10704;42.678;23.288;2022-12-11T15:13:35;4.20;99.90
21092;DHT22;10704;42.678;23.288;2022-12-11T15:16:03;4.10;99.90
21092;DHT22;10704;42.678;23.288;2022-12-11T15:18:35;4.20;99.90
21092;DHT22;10704;42.678;23.288;2022-12-11T15:21:06;4.10;99.90
21092;DHT22;10704;42.678;23.288;2022-12-11T15:23:58;4.00;99.90
21092;DHT22;10704;42.678;23.288;2022-12-11T15:29:24;4.10;99.90
21092;DHT22;10704;42.678;23.288;2022-12-11T15:35:33;4.00;99.90
21092;DHT22;10704;42.678;23.288;2022-12-11T15:37:31;4.00;99.90
21092;DHT22;10704;42.678;23.288;2022-12-11T15:39:59;4.00;99.90
21092;DHT22;10704;42.678;23.288;2022-12-11T15:42:41;4.10;99.90
21092;DHT22;10704;42.678;23.288;2022-12-11T15:45:17;4.20;99.90
21092;DHT22;10704;42.678;23.288;2022-12-11T15:47:45;4.00;99.90
21092;DHT22;10704;42.678;23.288;2022-12-11T15:52:42;4.00;99.90
21092;DHT22;10704;42.678;23.288;2022-12-11T15:55:08;3.90;99.90
21092;DHT22;10704;42.678;23.288;2022-12-11T15:57:42;3.90;99.90
21092;DHT22;10704;42.678;23.288;2022-12-11T16:00:13;3.90;99.90
21092;DHT22;10704;42.678;23.288;2022-12-11T16:02:39;4.00;99.90
21092;DHT22;10704;42.678;23.288;2022-12-11T16:05:05;4.00;99.90
21092;DHT22;10704;42.678;23.288;2022-12-11T16:07:32;4.10;99.90
21092;DHT22;10704;42.678;23.288;2022-12-11T16:09:58;4.10;99.90
21092;DHT22;10704;42.678;23.288;2022-12-11T16:12:24;4.10;99.90
21092;DHT22;10704;42.678;23.288;2022-12-11T16:14:51;4.00;99.90
21092;DHT22;10704;42.678;23.288;2022-12-11T16:17:17;4.10;99.90
21092;DHT22;10704;42.678;23.288;2022-12-11T16:19:43;4.10;99.90
21092;DHT22;10704;42.678;23.288;2022-12-11T16:22:11;4.00;99.90
21092;DHT22;10704;42.678;23.288;2022-12-11T16:24:37;4.10;99.90
21092;DHT22;10704;42.678;23.288;2022-12-11T16:27:05;4.00;99.90
21092;DHT22;10704;42.678;23.288;2022-12-11T16:29:36;4.00;99.90
21092;DHT22;10704;42.678;23.288;2022-12-11T16:32:03;3.90;99.90
21092;DHT22;10704;42.678;23.288;2022-12-11T16:34:31;4.00;99.90
21092;DHT22;10704;42.678;23.288;2022-12-11T16:36:58;4.00;99.90
21092;DHT22;10704;42.678;23.288;2022-12-11T16:39:24;3.90;99.90
21092;DHT22;10704;42.678;23.288;2022-12-11T16:41:50;3.90;99.90
21092;DHT22;10704;42.678;23.288;2022-12-11T16:44:20;3.80;99.90
21092;DHT22;10704;42.678;23.288;2022-12-11T16:46:46;3.80;99.90
21092;DHT22;10704;42.678;23.288;2022-12-11T16:49:12;3.90;99.90
21092;DHT22;10704;42.678;23.288;2022-12-11T16:51:39;3.90;99.90
21092;DHT22;10704;42.678;23.288;2022-12-11T16:54:05;3.90;99.90
21092;DHT22;10704;42.678;23.288;2022-12-11T16:56:31;3.90;99.90
21092;DHT22;10704;42.678;23.288;2022-12-11T16:58:59;3.90;99.90
21092;DHT22;10704;42.678;23.288;2022-12-11T17:01:25;3.90;99.90
21092;DHT22;10704;42.678;23.288;2022-12-11T17:03:51;3.90;99.90
21092;DHT22;10704;42.678;23.288;2022-12-11T17:06:17;3.90;99.90
21092;DHT22;10704;42.678;23.288;2022-12-11T17:08:43;3.90;99.90
21092;DHT22;10704;42.678;23.288;2022-12-11T17:11:17;3.90;99.90
21092;DHT22;10704;42.678;23.288;2022-12-11T17:13:44;4.00;99.90